createdAt,value
2017-11-15T00:01:15.022Z,21.60
2017-11-15T00:03:43.666Z,20.43
2017-11-15T00:06:12.107Z,20.67
2017-11-15T00:08:40.429Z,20.63
2017-11-15T00:11:08.746Z,18.83
2017-11-15T00:13:37.070Z,19.30
2017-11-15T00:16:05.396Z,19.93
2017-11-15T00:18:34.051Z,20.60
2017-11-15T00:21:02.393Z,19.50
2017-11-15T00:23:30.736Z,21.00
2017-11-15T00:25:59.071Z,20.43
2017-11-15T00:28:27.397Z,20.97
2017-11-15T00:30:55.744Z,21.40
2017-11-15T00:33:23.891Z,21.47
2017-11-15T00:35:53.191Z,21.53
2017-11-15T00:38:21.363Z,22.27
2017-11-15T00:40:49.759Z,23.93
2017-11-15T00:43:18.129Z,22.90
2017-11-15T00:45:46.494Z,23.73
2017-11-15T00:48:14.766Z,22.30
2017-11-15T00:50:43.103Z,24.17
2017-11-15T00:53:11.649Z,21.57
2017-11-15T00:55:39.974Z,21.97
2017-11-15T00:58:08.322Z,23.50
2017-11-15T01:00:36.677Z,22.63
2017-11-15T01:03:05.123Z,22.93
2017-11-15T01:05:33.505Z,21.50
2017-11-15T01:08:01.905Z,21.97
2017-11-15T01:10:30.477Z,21.60
2017-11-15T01:12:58.979Z,21.53
2017-11-15T01:15:27.318Z,23.90
2017-11-15T01:17:55.708Z,22.43
2017-11-15T01:20:24.060Z,21.20
2017-11-15T01:22:52.377Z,21.90
2017-11-15T01:25:20.907Z,21.90
2017-11-15T01:27:49.221Z,22.83
2017-11-15T01:30:17.564Z,23.27
2017-11-15T01:32:45.888Z,23.60
2017-11-15T01:35:13.894Z,22.90
2017-11-15T01:37:42.235Z,22.37
2017-11-15T01:40:10.769Z,21.77
2017-11-15T01:42:39.442Z,23.00
2017-11-15T01:45:07.763Z,21.47
2017-11-15T01:47:35.584Z,22.50
2017-11-15T01:50:03.348Z,23.53
2017-11-15T01:52:31.676Z,24.70
2017-11-15T01:55:00.765Z,21.77
2017-11-15T01:57:29.098Z,22.70
2017-11-15T01:59:57.243Z,22.70
2017-11-15T02:02:25.225Z,21.30
2017-11-15T02:04:53.555Z,25.13
2017-11-15T02:07:22.458Z,21.03
2017-11-15T02:09:50.964Z,21.67
2017-11-15T02:12:19.361Z,22.57
2017-11-15T02:14:47.695Z,20.63
2017-11-15T02:17:16.157Z,20.47
2017-11-15T02:19:44.037Z,21.33
2017-11-15T02:22:11.699Z,21.00
2017-11-15T02:24:40.452Z,21.63
2017-11-15T02:27:08.161Z,20.20
2017-11-15T02:29:36.218Z,22.80
2017-11-15T02:32:04.289Z,21.67
2017-11-15T02:34:31.965Z,21.97
2017-11-15T02:37:00.301Z,21.37
2017-11-15T02:39:29.098Z,20.60
2017-11-15T02:41:57.105Z,22.20
2017-11-15T02:44:24.769Z,21.27
2017-11-15T02:46:52.765Z,20.50
2017-11-15T02:49:20.429Z,21.10
2017-11-15T02:51:48.091Z,19.93
2017-11-15T02:54:16.585Z,18.43
2017-11-15T02:56:44.912Z,20.27
2017-11-15T02:59:12.906Z,20.03
2017-11-15T03:01:41.227Z,19.73
2017-11-15T03:04:09.440Z,20.33
2017-11-15T03:06:37.979Z,18.77
2017-11-15T03:09:06.319Z,21.47
2017-11-15T03:11:35.416Z,20.77
2017-11-15T03:14:04.726Z,19.37
2017-11-15T03:16:32.726Z,18.93
2017-11-15T03:19:01.059Z,18.37
2017-11-15T03:21:30.142Z,18.40
2017-11-15T03:23:58.468Z,17.33
2017-11-15T03:26:26.522Z,20.23
2017-11-15T03:28:54.175Z,20.70
2017-11-15T03:31:22.507Z,18.43
2017-11-15T03:33:51.056Z,17.73
2017-11-15T03:36:19.391Z,18.87
2017-11-15T03:38:48.470Z,19.80
2017-11-15T03:41:16.809Z,17.90
2017-11-15T03:43:45.345Z,18.93
2017-11-15T03:46:13.858Z,17.17
2017-11-15T03:48:42.423Z,18.40
2017-11-15T03:51:10.896Z,18.67
2017-11-15T03:53:39.206Z,17.83
2017-11-15T03:56:07.545Z,18.70
2017-11-15T03:58:35.920Z,18.60
2017-11-15T04:01:04.261Z,18.77
2017-11-15T04:03:32.608Z,17.30
2017-11-15T04:06:00.921Z,18.30
2017-11-15T04:08:30.015Z,17.20
2017-11-15T04:10:59.334Z,17.67
2017-11-15T04:13:27.673Z,17.37
2017-11-15T04:15:55.989Z,17.47
2017-11-15T04:18:24.305Z,17.87
2017-11-15T04:20:52.638Z,18.33
2017-11-15T04:23:20.961Z,18.73
2017-11-15T04:25:49.288Z,18.07
2017-11-15T04:28:17.612Z,17.90
2017-11-15T04:30:45.930Z,17.40
2017-11-15T04:33:14.248Z,17.93
2017-11-15T04:35:42.482Z,18.33
2017-11-15T04:38:10.925Z,17.53
2017-11-15T04:40:40.228Z,18.33
2017-11-15T04:43:08.558Z,16.60
2017-11-15T04:45:36.710Z,19.20
2017-11-15T04:48:04.843Z,17.20
2017-11-15T04:50:33.215Z,17.43
2017-11-15T04:53:01.558Z,16.53
2017-11-15T04:55:30.203Z,17.73
2017-11-15T04:57:59.500Z,16.80
2017-11-15T05:00:27.916Z,17.80
2017-11-15T05:02:57.133Z,16.60
2017-11-15T05:05:25.551Z,16.77
2017-11-15T05:07:53.877Z,15.67
2017-11-15T05:10:22.211Z,17.80
2017-11-15T05:12:50.645Z,17.57
2017-11-15T05:15:19.036Z,18.00
2017-11-15T05:17:48.170Z,15.40
2017-11-15T05:20:15.841Z,17.20
2017-11-15T05:22:44.030Z,16.63
2017-11-15T05:25:16.977Z,16.10
2017-11-15T05:27:49.512Z,17.10
2017-11-15T05:30:22.551Z,16.50
2017-11-15T05:32:50.893Z,16.70
2017-11-15T05:35:24.750Z,14.60
2017-11-15T05:37:54.840Z,17.30
2017-11-15T05:40:24.722Z,15.03
2017-11-15T05:42:57.755Z,16.67
2017-11-15T05:45:29.964Z,17.80
2017-11-15T05:48:03.102Z,18.80
2017-11-15T05:50:36.138Z,15.63
2017-11-15T05:53:09.517Z,17.00
2017-11-15T05:55:41.174Z,18.73
2017-11-15T05:58:13.721Z,19.57
2017-11-15T06:00:46.753Z,18.23
2017-11-15T06:03:19.051Z,18.87
2017-11-15T06:05:51.151Z,19.53
2017-11-15T06:08:23.656Z,16.90
2017-11-15T06:10:56.427Z,16.93
2017-11-15T06:13:29.285Z,17.60
2017-11-15T06:15:57.693Z,16.77
2017-11-15T06:18:26.361Z,15.80
2017-11-15T06:20:54.899Z,17.07
2017-11-15T06:23:23.426Z,18.37
2017-11-15T06:25:51.724Z,17.97
2017-11-15T06:28:20.239Z,17.60
2017-11-15T06:30:48.810Z,16.97
2017-11-15T06:33:17.539Z,18.80
2017-11-15T06:35:46.050Z,20.03
2017-11-15T06:38:14.730Z,19.40
2017-11-15T06:40:43.061Z,18.03
2017-11-15T06:43:11.397Z,18.47
2017-11-15T06:45:39.738Z,19.10
2017-11-15T06:48:08.067Z,19.53
2017-11-15T06:50:36.732Z,18.80
2017-11-15T06:53:05.297Z,18.87
2017-11-15T06:55:33.781Z,18.33
2017-11-15T06:58:02.172Z,19.37
2017-11-15T07:00:30.510Z,17.20
2017-11-15T07:02:58.936Z,19.50
2017-11-15T07:05:27.462Z,18.63
2017-11-15T07:07:55.812Z,18.60
2017-11-15T07:10:24.142Z,18.50
2017-11-15T07:12:52.695Z,20.10
2017-11-15T07:15:21.069Z,18.27
2017-11-15T07:17:49.635Z,18.60
2017-11-15T07:20:17.987Z,17.20
2017-11-15T07:22:46.507Z,18.33
2017-11-15T07:25:14.837Z,18.73
2017-11-15T07:27:43.178Z,18.27
2017-11-15T07:30:15.953Z,17.70
2017-11-15T07:32:45.864Z,17.97
2017-11-15T07:35:18.349Z,18.07
2017-11-15T07:37:50.503Z,16.67
2017-11-15T07:40:21.177Z,19.40
2017-11-15T07:42:54.028Z,17.60
2017-11-15T07:45:27.142Z,20.50
2017-11-15T07:48:00.008Z,20.63
2017-11-15T07:50:32.267Z,21.93
2017-11-15T07:53:04.724Z,20.27
2017-11-15T07:55:36.943Z,21.40
2017-11-15T07:58:10.149Z,20.90
2017-11-15T08:00:42.662Z,20.67
2017-11-15T08:03:15.424Z,21.10
2017-11-15T08:05:43.883Z,25.83
2017-11-15T08:08:12.238Z,24.20
2017-11-15T08:10:41.342Z,22.77
2017-11-15T08:13:13.826Z,24.33
2017-11-15T08:15:45.244Z,23.93
2017-11-15T08:18:13.443Z,26.47
2017-11-15T08:20:41.980Z,24.97
2017-11-15T08:23:12.352Z,27.23
2017-11-15T08:25:44.344Z,26.17
2017-11-15T08:28:15.887Z,26.03
2017-11-15T08:30:44.385Z,24.63
2017-11-15T08:33:14.103Z,23.00
2017-11-15T08:35:42.420Z,24.40
2017-11-15T08:38:10.756Z,22.83
2017-11-15T08:40:39.096Z,24.60
2017-11-15T08:43:07.447Z,24.77
2017-11-15T08:45:35.772Z,22.73
2017-11-15T08:48:03.992Z,23.23
2017-11-15T08:50:32.328Z,22.90
2017-11-15T08:53:00.667Z,23.33
2017-11-15T08:55:29.013Z,21.33
2017-11-15T08:57:57.624Z,24.57
2017-11-15T09:00:25.633Z,24.30
2017-11-15T09:02:54.967Z,23.63
2017-11-15T09:05:28.306Z,24.93
2017-11-15T09:07:57.547Z,23.83
2017-11-15T09:10:26.845Z,22.37
2017-11-15T09:12:55.192Z,23.97
2017-11-15T09:15:23.536Z,24.53
2017-11-15T09:17:52.098Z,24.60
2017-11-15T09:20:20.441Z,22.57
2017-11-15T09:22:48.790Z,23.13
2017-11-15T09:25:17.150Z,21.90
2017-11-15T09:27:45.487Z,23.60
2017-11-15T09:30:13.814Z,23.70
2017-11-15T09:32:43.151Z,23.03
2017-11-15T09:35:11.493Z,23.50
2017-11-15T09:37:40.595Z,21.87
2017-11-15T09:40:08.942Z,23.00
2017-11-15T09:42:37.558Z,22.90
2017-11-15T09:45:05.908Z,22.03
2017-11-15T09:47:35.016Z,22.43
2017-11-15T09:50:03.011Z,24.17
2017-11-15T09:52:31.365Z,23.37
2017-11-15T09:55:00.667Z,21.80
2017-11-15T09:57:29.758Z,20.63
2017-11-15T09:59:58.972Z,20.40
2017-11-15T10:02:27.295Z,21.37
2017-11-15T10:04:55.637Z,24.13
2017-11-15T10:07:23.981Z,21.80
2017-11-15T10:09:52.476Z,21.67
2017-11-15T10:12:20.854Z,21.73
2017-11-15T10:14:49.182Z,20.93
2017-11-15T10:17:17.513Z,20.40
2017-11-15T10:19:46.053Z,20.60
2017-11-15T10:22:14.391Z,20.03
2017-11-15T10:24:42.744Z,19.73
2017-11-15T10:27:11.071Z,20.90
2017-11-15T10:29:39.611Z,19.33
2017-11-15T10:32:08.166Z,19.53
2017-11-15T10:34:36.494Z,20.47
2017-11-15T10:37:05.594Z,22.03
2017-11-15T10:39:34.143Z,21.90
2017-11-15T10:42:02.490Z,23.40
2017-11-15T10:44:30.820Z,22.20
2017-11-15T10:46:59.161Z,22.30
2017-11-15T10:49:28.803Z,21.97
2017-11-15T10:51:58.011Z,22.33
2017-11-15T10:54:26.351Z,21.80
2017-11-15T10:56:54.675Z,21.53
2017-11-15T10:59:23.033Z,22.30
2017-11-15T11:01:51.521Z,20.83
2017-11-15T11:04:19.664Z,21.93
2017-11-15T11:06:48.196Z,23.27
2017-11-15T11:09:16.536Z,22.27
2017-11-15T11:11:45.632Z,21.87
2017-11-15T11:14:14.066Z,22.97
2017-11-15T11:16:42.579Z,20.97
2017-11-15T11:19:11.750Z,20.60
2017-11-15T11:21:41.550Z,20.37
2017-11-15T11:24:09.903Z,19.40
2017-11-15T11:26:38.240Z,19.57
2017-11-15T11:29:07.569Z,21.73
2017-11-15T11:31:35.900Z,19.13
2017-11-15T11:34:05.012Z,22.07
2017-11-15T11:36:33.384Z,22.20
2017-11-15T11:39:01.398Z,22.10
2017-11-15T11:41:29.771Z,21.37
2017-11-15T11:43:58.110Z,22.23
2017-11-15T11:46:26.577Z,22.97
2017-11-15T11:48:54.910Z,23.03
2017-11-15T11:51:23.263Z,23.23
2017-11-15T11:53:51.586Z,23.60
2017-11-15T11:56:19.936Z,23.77
2017-11-15T11:58:48.267Z,23.03
2017-11-15T12:01:17.572Z,26.47
2017-11-15T12:03:45.895Z,25.80
2017-11-15T12:06:14.482Z,22.00
2017-11-15T12:08:42.820Z,23.37
2017-11-15T12:11:12.868Z,23.50
2017-11-15T12:13:41.200Z,22.43
2017-11-15T12:16:10.165Z,24.40
2017-11-15T12:18:39.284Z,23.80
2017-11-15T12:21:07.378Z,27.07
2017-11-15T12:23:35.933Z,23.63
2017-11-15T12:26:04.274Z,23.20
2017-11-15T12:28:34.295Z,25.70
2017-11-15T12:31:02.959Z,21.97
2017-11-15T12:33:31.291Z,23.60
2017-11-15T12:35:59.648Z,24.37
2017-11-15T12:38:27.971Z,21.40
2017-11-15T12:40:55.974Z,24.53
2017-11-15T12:43:24.309Z,26.00
2017-11-15T12:45:52.815Z,23.43
2017-11-15T12:48:21.025Z,25.10
2017-11-15T12:50:49.572Z,21.73
2017-11-15T12:53:18.391Z,24.07
2017-11-15T12:55:46.414Z,25.63
2017-11-15T12:58:14.919Z,27.57
2017-11-15T13:00:43.276Z,25.10
2017-11-15T13:03:11.612Z,26.00
2017-11-15T13:05:39.935Z,23.33
2017-11-15T13:08:08.316Z,23.30
2017-11-15T13:10:36.812Z,22.63
2017-11-15T13:13:05.189Z,20.60
2017-11-15T13:15:33.199Z,23.13
2017-11-15T13:18:01.562Z,19.57
2017-11-15T13:20:29.909Z,21.13
2017-11-15T13:22:58.270Z,19.17
2017-11-15T13:25:27.071Z,21.77
2017-11-15T13:27:55.476Z,20.13
2017-11-15T13:30:23.861Z,19.83
2017-11-15T13:32:52.204Z,19.30
2017-11-15T13:35:20.532Z,18.30
2017-11-15T13:37:49.264Z,19.50
2017-11-15T13:40:17.613Z,18.50
2017-11-15T13:42:46.045Z,20.33
2017-11-15T13:45:14.079Z,21.40
2017-11-15T13:47:42.398Z,18.50
2017-11-15T13:50:10.835Z,21.20
2017-11-15T13:52:39.257Z,20.57
2017-11-15T13:55:07.905Z,19.90
2017-11-15T13:57:37.020Z,20.10
2017-11-15T14:00:05.799Z,21.30
2017-11-15T14:02:34.165Z,22.83
2017-11-15T14:05:02.520Z,22.73
2017-11-15T14:07:30.865Z,20.10
2017-11-15T14:09:59.193Z,21.17
2017-11-15T14:12:27.537Z,19.27
2017-11-15T14:14:56.104Z,19.67
2017-11-15T14:17:25.201Z,20.00
2017-11-15T14:19:53.595Z,20.50
2017-11-15T14:22:21.928Z,19.40
2017-11-15T14:24:50.487Z,20.77
2017-11-15T14:27:18.927Z,18.60
2017-11-15T14:29:47.268Z,18.90
2017-11-15T14:32:16.375Z,17.80
2017-11-15T14:34:45.684Z,18.23
2017-11-15T14:37:14.033Z,17.70
2017-11-15T14:39:43.112Z,17.47
2017-11-15T14:42:12.471Z,17.67
2017-11-15T14:44:40.800Z,18.83
2017-11-15T14:47:09.827Z,17.57
2017-11-15T14:49:38.197Z,17.97
2017-11-15T14:52:06.747Z,18.60
2017-11-15T14:54:35.265Z,18.47
2017-11-15T14:57:03.608Z,17.93
2017-11-15T14:59:31.946Z,17.10
2017-11-15T15:02:00.488Z,16.50
2017-11-15T15:04:28.855Z,17.40
2017-11-15T15:06:57.382Z,16.00
2017-11-15T15:09:26.536Z,16.00
2017-11-15T15:11:54.910Z,18.10
2017-11-15T15:14:23.252Z,17.13
2017-11-15T15:16:52.540Z,15.80
2017-11-15T15:19:20.875Z,16.57
2017-11-15T15:21:49.210Z,15.80
2017-11-15T15:24:17.740Z,15.97
2017-11-15T15:26:46.074Z,17.40
2017-11-15T15:29:14.465Z,17.90
2017-11-15T15:31:42.875Z,17.17
2017-11-15T15:34:11.200Z,16.03
2017-11-15T15:36:39.606Z,16.07
2017-11-15T15:39:07.764Z,15.40
2017-11-15T15:41:36.105Z,16.47
